createdAt,value
2023-03-08T00:00:08.530Z,95694.50
2023-03-08T00:02:39.103Z,95697.34
2023-03-08T00:05:07.963Z,95705.41
2023-03-08T00:07:36.029Z,95708.94
2023-03-08T00:10:04.296Z,95712.63
2023-03-08T00:12:32.432Z,95717.28
2023-03-08T00:15:02.070Z,95713.78
2023-03-08T00:17:30.240Z,95724.50
2023-03-08T00:19:58.554Z,95715.75
2023-03-08T00:22:26.812Z,95726.50
2023-03-08T00:24:55.157Z,95719.25
2023-03-08T00:27:23.260Z,95719.25
2023-03-08T00:29:51.523Z,95722.81
2023-03-08T00:32:21.150Z,95720.13
2023-03-08T00:34:52.674Z,95711.19
2023-03-08T00:37:20.878Z,95717.56
2023-03-08T00:39:51.833Z,95712.06
2023-03-08T00:42:20.387Z,95715.75
2023-03-08T00:44:48.652Z,95708.81
2023-03-08T00:47:16.848Z,95707.09
2023-03-08T00:49:46.481Z,95706.28
2023-03-08T00:52:15.865Z,95700.91
2023-03-08T00:54:45.613Z,95707.25
2023-03-08T00:57:13.972Z,95709.94
2023-03-08T00:59:42.112Z,95715.31
2023-03-08T01:02:12.360Z,95706.41
2023-03-08T01:04:41.352Z,95706.53
2023-03-08T01:07:10.841Z,95697.78
2023-03-08T01:09:39.779Z,95706.69
2023-03-08T01:12:08.005Z,95712.22
2023-03-08T01:14:38.975Z,95711.22
2023-03-08T01:17:08.104Z,95702.31
2023-03-08T01:19:36.173Z,95715.72
2023-03-08T01:22:05.691Z,95730.00
2023-03-08T01:24:35.629Z,95722.09
2023-03-08T01:27:03.827Z,95725.66
2023-03-08T01:29:31.967Z,95723.78
2023-03-08T01:32:00.130Z,95726.63
2023-03-08T01:34:28.193Z,95728.44
2023-03-08T01:36:56.699Z,95740.19
2023-03-08T01:39:24.754Z,95741.88
2023-03-08T01:41:54.336Z,95740.03
2023-03-08T01:44:22.938Z,95744.56
2023-03-08T01:46:52.349Z,95749.94
2023-03-08T01:49:20.827Z,95756.31
2023-03-08T01:51:51.442Z,95750.06
2023-03-08T01:54:21.049Z,95750.94
2023-03-08T01:56:49.860Z,95750.22
2023-03-08T01:59:19.460Z,95759.13
2023-03-08T02:01:48.052Z,95760.97
2023-03-08T02:04:16.377Z,95759.97
2023-03-08T02:06:46.636Z,95759.25
2023-03-08T02:09:19.616Z,95763.81
2023-03-08T02:11:47.870Z,95761.94
2023-03-08T02:14:16.030Z,95760.25
2023-03-08T02:16:48.784Z,95767.47
2023-03-08T02:19:19.136Z,95758.56
2023-03-08T02:21:47.596Z,95774.66
2023-03-08T02:24:21.827Z,95771.16
2023-03-08T02:26:49.934Z,95779.22
2023-03-08T02:29:18.084Z,95783.72
2023-03-08T02:31:46.505Z,95789.09
2023-03-08T02:34:14.852Z,95789.94
2023-03-08T02:36:42.981Z,95787.38
2023-03-08T02:39:12.524Z,95792.75
2023-03-08T02:41:42.057Z,95790.06
2023-03-08T02:44:10.215Z,95798.13
2023-03-08T02:46:38.322Z,95797.28
2023-03-08T02:49:06.424Z,95788.38
2023-03-08T02:51:34.517Z,95799.97
2023-03-08T02:54:02.587Z,95802.66
2023-03-08T02:56:30.807Z,95809.88
2023-03-08T02:59:00.359Z,95786.56
2023-03-08T03:01:28.822Z,95783.16
2023-03-08T03:03:56.981Z,95783.97
2023-03-08T03:06:25.233Z,95791.22
2023-03-08T03:08:57.127Z,95793.91
2023-03-08T03:11:25.965Z,95793.91
2023-03-08T03:13:57.880Z,95809.16
2023-03-08T03:16:31.645Z,95802.94
2023-03-08T03:19:00.628Z,95802.06
2023-03-08T03:21:28.853Z,95801.25
2023-03-08T03:23:57.035Z,95804.75
2023-03-08T03:26:32.924Z,95806.63
2023-03-08T03:29:01.430Z,95807.59
2023-03-08T03:31:35.678Z,95807.59
2023-03-08T03:34:04.152Z,95807.72
2023-03-08T03:36:34.440Z,95805.91
2023-03-08T03:39:03.393Z,95821.00
2023-03-08T03:41:33.960Z,95822.97
2023-03-08T03:44:07.203Z,95827.47
2023-03-08T03:46:37.680Z,95827.47
2023-03-08T03:49:08.682Z,95838.19
2023-03-08T03:51:40.381Z,95842.75
2023-03-08T03:54:28.858Z,95851.63
2023-03-08T03:57:00.425Z,95849.94
2023-03-08T03:59:34.094Z,95846.41
2023-03-08T04:02:04.637Z,95842.84
2023-03-08T04:04:38.614Z,95840.19
2023-03-08T04:07:07.107Z,95839.34
2023-03-08T04:09:40.560Z,95830.44
2023-03-08T04:12:16.069Z,95829.56
2023-03-08T04:14:45.299Z,95829.72
2023-03-08T04:17:16.187Z,95822.53
2023-03-08T04:19:55.611Z,95826.19
2023-03-08T04:22:23.998Z,95840.47
2023-03-08T04:25:03.249Z,95839.59
2023-03-08T04:27:40.817Z,95844.13
2023-03-08T04:30:10.093Z,95843.28
2023-03-08T04:32:39.688Z,95853.19
2023-03-08T04:35:08.969Z,95850.50
2023-03-08T04:37:40.283Z,95854.03
2023-03-08T04:40:14.279Z,95853.31
2023-03-08T04:42:49.936Z,95855.16
2023-03-08T04:45:22.346Z,95849.78
2023-03-08T04:47:52.770Z,95845.38
2023-03-08T04:50:21.732Z,95849.06
2023-03-08T04:52:50.248Z,95846.38
2023-03-08T04:55:18.636Z,95851.75
2023-03-08T04:57:48.051Z,95834.78
2023-03-08T05:00:17.058Z,95843.69
2023-03-08T05:02:45.812Z,95850.88
2023-03-08T05:05:19.221Z,95852.72
2023-03-08T05:07:48.182Z,95854.56
2023-03-08T05:10:16.823Z,95864.47
2023-03-08T05:12:45.046Z,95857.38
2023-03-08T05:15:13.319Z,95858.22
2023-03-08T05:17:41.481Z,95860.06
2023-03-08T05:20:11.597Z,95872.50
2023-03-08T05:22:58.235Z,95867.13
2023-03-08T05:25:32.326Z,95857.38
2023-03-08T05:28:02.025Z,95858.22
2023-03-08T05:30:30.308Z,95872.50
2023-03-08T05:32:58.880Z,95880.56
2023-03-08T05:35:27.464Z,95885.94
2023-03-08T05:37:58.247Z,95884.09
2023-03-08T05:40:27.025Z,95892.16
2023-03-08T05:42:56.060Z,95901.03
2023-03-08T05:45:26.580Z,95894.84
2023-03-08T05:47:55.491Z,95897.38
2023-03-08T05:50:24.351Z,95899.22
2023-03-08T05:52:54.018Z,95907.25
2023-03-08T05:55:28.208Z,95910.66
2023-03-08T05:57:57.407Z,95913.34
2023-03-08T06:00:26.568Z,95907.97
2023-03-08T06:02:59.698Z,95908.84
2023-03-08T06:05:28.516Z,95919.44
2023-03-08T06:07:57.987Z,95908.69
2023-03-08T06:10:26.091Z,95915.88
2023-03-08T06:12:56.849Z,95920.44
2023-03-08T06:15:26.164Z,95924.81
2023-03-08T06:17:54.871Z,95923.94
2023-03-08T06:20:25.780Z,95930.16
2023-03-08T06:22:53.964Z,95934.44
2023-03-08T06:25:22.240Z,95933.44
2023-03-08T06:27:50.852Z,95944.16
2023-03-08T06:30:32.026Z,95945.16
2023-03-08T06:33:00.463Z,95939.81
2023-03-08T06:35:28.643Z,95939.81
2023-03-08T06:38:01.112Z,95939.81
2023-03-08T06:40:29.250Z,95945.16
2023-03-08T06:42:57.325Z,95945.16
2023-03-08T06:45:25.532Z,95957.59
2023-03-08T06:47:55.054Z,95953.22
2023-03-08T06:50:23.145Z,95958.44
2023-03-08T06:52:51.747Z,95964.53
2023-03-08T06:55:27.969Z,95967.09
2023-03-08T06:57:56.659Z,95961.72
2023-03-08T07:00:25.003Z,95959.78
2023-03-08T07:02:54.979Z,95969.69
2023-03-08T07:05:23.065Z,95964.31
2023-03-08T07:07:51.213Z,95960.63
2023-03-08T07:10:19.653Z,95964.19
2023-03-08T07:12:49.266Z,95958.81
2023-03-08T07:15:19.059Z,95962.34
2023-03-08T07:17:47.232Z,95962.22
2023-03-08T07:20:17.452Z,95962.22
2023-03-08T07:22:45.734Z,95963.06
2023-03-08T07:25:13.964Z,95970.25
2023-03-08T07:27:41.973Z,95964.91
2023-03-08T07:30:11.235Z,95973.81
2023-03-08T07:32:40.805Z,95971.94
2023-03-08T07:35:09.742Z,95975.63
2023-03-08T07:37:39.266Z,95975.63
2023-03-08T07:40:08.782Z,95964.03
2023-03-08T07:42:36.864Z,95973.81
2023-03-08T07:45:17.291Z,95969.25
2023-03-08T07:47:45.533Z,95968.28
2023-03-08T07:50:13.926Z,95967.44
2023-03-08T07:52:43.390Z,95966.56
2023-03-08T07:55:12.131Z,95965.59
2023-03-08T07:57:40.207Z,95966.56
2023-03-08T08:00:09.584Z,95953.16
2023-03-08T08:02:40.683Z,95954.00
2023-03-08T08:05:09.539Z,95949.50
2023-03-08T08:07:37.653Z,95954.88
2023-03-08T08:10:08.751Z,95947.66
2023-03-08T08:12:36.903Z,95945.94
2023-03-08T08:15:05.617Z,95944.13
2023-03-08T08:17:33.820Z,95927.16
2023-03-08T08:20:01.880Z,95931.56
2023-03-08T08:22:30.003Z,95918.97
2023-03-08T08:24:58.109Z,95918.97
2023-03-08T08:27:27.604Z,95911.75
2023-03-08T08:29:56.256Z,95917.28
2023-03-08T08:32:24.496Z,95910.91
2023-03-08T08:34:52.642Z,95918.13
2023-03-08T08:37:20.835Z,95922.50
2023-03-08T08:39:48.926Z,95914.44
2023-03-08T08:42:17.016Z,95911.75
2023-03-08T08:44:46.499Z,95917.13
2023-03-08T08:47:14.584Z,95913.47
2023-03-08T08:49:42.910Z,95918.84
2023-03-08T08:52:11.176Z,95924.22
2023-03-08T08:54:40.503Z,95925.19
2023-03-08T08:57:08.624Z,95929.69
2023-03-08T08:59:36.704Z,95930.56
2023-03-08T09:02:06.376Z,95926.03
2023-03-08T09:04:34.707Z,95922.50
2023-03-08T09:07:02.875Z,95927.88
2023-03-08T09:09:30.994Z,95922.50
2023-03-08T09:11:59.081Z,95920.81
2023-03-08T09:14:27.268Z,95925.03
2023-03-08T09:16:55.478Z,95919.66
2023-03-08T09:19:25.046Z,95926.75
2023-03-08T09:21:53.364Z,95930.16
2023-03-08T09:24:21.486Z,95922.09
2023-03-08T09:26:49.598Z,95914.03
2023-03-08T09:29:17.775Z,95915.72
2023-03-08T09:31:46.432Z,95910.34
2023-03-08T09:34:15.571Z,95906.00
2023-03-08T09:36:45.651Z,95905.84
2023-03-08T09:39:14.199Z,95907.56
2023-03-08T09:41:52.770Z,95911.22
2023-03-08T09:44:48.319Z,95907.56
2023-03-08T09:47:21.630Z,95914.75
2023-03-08T09:49:51.843Z,95913.75
2023-03-08T09:52:25.461Z,95914.63
2023-03-08T09:54:53.766Z,95911.94
2023-03-08T09:57:24.127Z,95924.38
2023-03-08T09:59:54.719Z,95916.31
2023-03-08T10:02:28.884Z,95906.41
2023-03-08T10:05:12.301Z,95913.66
2023-03-08T10:07:49.577Z,95904.72
2023-03-08T10:10:34.986Z,95903.72
2023-03-08T10:13:24.417Z,95898.25
2023-03-08T10:15:53.698Z,95879.56
2023-03-08T10:18:25.188Z,95884.94
2023-03-08T10:20:53.327Z,95876.03
2023-03-08T10:23:23.383Z,95871.50
2023-03-08T10:25:51.880Z,95866.97
2023-03-08T10:28:21.122Z,95864.28
2023-03-08T10:30:50.256Z,95843.66
2023-03-08T10:33:19.423Z,95837.44
2023-03-08T10:35:58.866Z,95835.59
2023-03-08T10:38:30.060Z,95831.91
2023-03-08T10:41:02.410Z,95829.25
2023-03-08T10:43:31.544Z,95830.94
2023-03-08T10:46:03.671Z,95822.91
2023-03-08T10:48:31.900Z,95808.59
2023-03-08T10:51:01.092Z,95809.47
2023-03-08T10:53:30.679Z,95807.47
2023-03-08T10:56:01.953Z,95796.75
2023-03-08T10:58:34.986Z,95793.06
2023-03-08T11:01:05.470Z,95790.50
2023-03-08T11:03:33.599Z,95779.78
2023-03-08T11:06:03.088Z,95777.09
2023-03-08T11:08:34.050Z,95782.59
2023-03-08T11:11:10.328Z,95764.78
2023-03-08T11:13:39.289Z,95758.44
2023-03-08T11:16:13.414Z,95760.13
2023-03-08T11:18:51.276Z,95765.47
2023-03-08T11:21:21.985Z,95762.78
2023-03-08T11:23:54.984Z,95761.81
2023-03-08T11:26:27.203Z,95752.91
2023-03-08T11:29:03.362Z,95736.78
2023-03-08T11:31:34.152Z,95734.97
2023-03-08T11:34:21.895Z,95722.41
2023-03-08T11:36:52.083Z,95708.97
2023-03-08T11:39:26.028Z,95698.22
2023-03-08T11:41:57.497Z,95702.59
2023-03-08T11:44:36.426Z,95695.38
2023-03-08T11:47:24.276Z,95690.00
2023-03-08T11:49:56.029Z,95693.66
2023-03-08T11:52:28.854Z,95683.94
2023-03-08T11:55:07.467Z,95680.25
2023-03-08T11:57:36.965Z,95688.19
2023-03-08T12:00:13.004Z,95678.41
2023-03-08T12:02:43.830Z,95681.94
2023-03-08T12:05:15.031Z,95666.53
2023-03-08T12:07:44.736Z,95664.72
2023-03-08T12:10:19.432Z,95666.53
2023-03-08T12:12:49.497Z,95663.00
2023-03-08T12:15:23.518Z,95656.66
2023-03-08T12:17:53.922Z,95650.28
2023-03-08T12:20:22.430Z,95653.81
2023-03-08T12:22:52.587Z,95652.00
2023-03-08T12:25:25.764Z,95655.50
2023-03-08T12:27:56.981Z,95644.75
2023-03-08T12:30:30.527Z,95637.56
2023-03-08T12:33:00.218Z,95622.44
2023-03-08T12:35:30.597Z,95609.84
2023-03-08T12:38:00.287Z,95606.31
2023-03-08T12:40:40.977Z,95608.84
2023-03-08T12:43:11.615Z,95593.72
2023-03-08T12:45:40.266Z,95585.97
2023-03-08T12:48:18.952Z,95576.06
2023-03-08T12:50:59.708Z,95573.25
2023-03-08T12:53:35.387Z,95555.28
2023-03-08T12:56:17.217Z,95553.31
2023-03-08T12:58:50.227Z,95552.13
2023-03-08T13:01:35.908Z,95547.63
2023-03-08T13:04:05.388Z,95554.72
2023-03-08T13:06:55.038Z,95542.41
2023-03-08T13:09:24.200Z,95534.50
2023-03-08T13:11:57.641Z,95543.38
2023-03-08T13:14:27.368Z,95535.19
2023-03-08T13:16:55.656Z,95536.72
2023-03-08T13:19:27.375Z,95529.25
2023-03-08T13:22:02.145Z,95522.69
2023-03-08T13:24:42.733Z,95531.47
2023-03-08T13:27:22.841Z,95520.72
2023-03-08T13:29:51.016Z,95522.44
2023-03-08T13:32:20.121Z,95517.06
2023-03-08T13:34:59.045Z,95504.47
2023-03-08T13:37:28.119Z,95518.72
2023-03-08T13:39:57.193Z,95501.63
2023-03-08T13:42:27.291Z,95507.84
2023-03-08T13:44:55.767Z,95511.38
2023-03-08T13:47:25.666Z,95496.09
2023-03-08T13:49:54.942Z,95498.78
2023-03-08T13:52:24.294Z,95508.69
2023-03-08T13:54:54.258Z,95503.19
2023-03-08T13:57:23.655Z,95487.88
2023-03-08T13:59:54.595Z,95495.94
2023-03-08T14:02:23.609Z,95497.50
2023-03-08T14:04:51.862Z,95476.84
2023-03-08T14:07:23.188Z,95462.56
2023-03-08T14:09:51.370Z,95466.09
2023-03-08T14:12:20.641Z,95479.53
2023-03-08T14:14:50.058Z,95482.22
2023-03-08T14:17:22.652Z,95478.53
2023-03-08T14:19:54.640Z,95482.91
2023-03-08T14:22:37.722Z,95482.06
2023-03-08T14:25:07.374Z,95469.47
2023-03-08T14:27:38.935Z,95467.66
2023-03-08T14:30:13.835Z,95465.94
2023-03-08T14:32:43.818Z,95452.50
2023-03-08T14:35:17.783Z,95453.38
2023-03-08T14:37:46.317Z,95454.22
2023-03-08T14:40:26.697Z,95452.34
2023-03-08T14:42:55.771Z,95457.88
2023-03-08T14:45:25.266Z,95462.72
2023-03-08T14:47:55.766Z,95456.50
2023-03-08T14:50:25.673Z,95449.13
2023-03-08T14:52:54.992Z,95447.28
2023-03-08T14:55:24.548Z,95448.28
2023-03-08T14:57:53.883Z,95459.88
2023-03-08T15:00:23.046Z,95460.72
2023-03-08T15:02:51.180Z,95465.25
2023-03-08T15:05:28.788Z,95464.41
2023-03-08T15:07:59.359Z,95465.94
2023-03-08T15:10:29.233Z,95459.03
2023-03-08T15:12:57.589Z,95466.25
2023-03-08T15:15:25.680Z,95462.72
2023-03-08T15:17:53.801Z,95470.78
2023-03-08T15:20:24.968Z,95474.31
2023-03-08T15:22:53.837Z,95466.25
2023-03-08T15:25:24.627Z,95463.56
2023-03-08T15:27:53.186Z,95465.56
2023-03-08T15:30:22.907Z,95477.28
2023-03-08T15:32:51.063Z,95465.69
2023-03-08T15:35:19.813Z,95468.38
2023-03-08T15:37:49.388Z,95472.06
2023-03-08T15:40:18.211Z,95456.94
2023-03-08T15:42:46.390Z,95455.09
2023-03-08T15:45:14.652Z,95458.63
2023-03-08T15:47:42.774Z,95456.94
2023-03-08T15:50:15.608Z,95445.38
2023-03-08T15:52:44.001Z,95441.81
2023-03-08T15:55:13.918Z,95435.59
2023-03-08T15:57:42.077Z,95438.28
2023-03-08T16:00:12.601Z,95444.66
2023-03-08T16:02:41.213Z,95457.25
2023-03-08T16:05:10.701Z,95452.84
2023-03-08T16:07:39.084Z,95456.41
2023-03-08T16:10:08.693Z,95464.44
2023-03-08T16:12:38.170Z,95480.56
2023-03-08T16:15:07.571Z,95478.91
2023-03-08T16:17:35.765Z,95482.41
2023-03-08T16:20:06.150Z,95474.34
2023-03-08T16:22:35.401Z,95477.03
2023-03-08T16:25:03.609Z,95474.34
2023-03-08T16:27:36.279Z,95476.22
2023-03-08T16:30:08.674Z,95475.63
2023-03-08T16:32:36.967Z,95471.44
2023-03-08T16:35:05.643Z,95474.25
2023-03-08T16:37:33.760Z,95477.94
2023-03-08T16:40:02.474Z,95493.03
2023-03-08T16:42:30.820Z,95495.59
2023-03-08T16:45:00.068Z,95492.75
2023-03-08T16:47:32.316Z,95499.81
2023-03-08T16:50:00.816Z,95488.94
2023-03-08T16:52:29.176Z,95490.63
2023-03-08T16:54:57.647Z,95481.59
2023-03-08T16:57:27.073Z,95467.28
2023-03-08T16:59:55.294Z,95479.72
2023-03-08T17:02:24.129Z,95479.88
2023-03-08T17:04:54.322Z,95448.78
2023-03-08T17:07:22.710Z,95465.59
2023-03-08T17:09:51.710Z,95468.97
2023-03-08T17:12:20.241Z,95453.69
2023-03-08T17:14:48.347Z,95459.22
2023-03-08T17:17:16.691Z,95468.97
2023-03-08T17:19:44.862Z,95469.81
2023-03-08T17:22:14.372Z,95484.97
2023-03-08T17:24:42.458Z,95477.59
2023-03-08T17:27:10.639Z,95469.53
2023-03-08T17:29:38.745Z,95488.19
2023-03-08T17:32:07.581Z,95479.13
2023-03-08T17:34:36.443Z,95495.13
2023-03-08T17:37:04.633Z,95482.50
2023-03-08T17:39:34.079Z,95487.88
2023-03-08T17:42:02.247Z,95492.28
2023-03-08T17:44:30.450Z,95492.28
2023-03-08T17:46:58.598Z,95490.44
2023-03-08T17:49:26.688Z,95478.69
2023-03-08T17:51:54.969Z,95489.59
2023-03-08T17:54:23.170Z,95492.13
2023-03-08T17:56:52.709Z,95499.19
2023-03-08T17:59:20.925Z,95487.59
2023-03-08T18:01:49.097Z,95495.50
2023-03-08T18:04:19.040Z,95488.44
2023-03-08T18:06:47.272Z,95482.06
2023-03-08T18:09:16.592Z,95491.84
2023-03-08T18:11:44.799Z,95482.91
2023-03-08T18:14:14.922Z,95486.47
2023-03-08T18:16:44.800Z,95473.03
2023-03-08T18:19:13.167Z,95464.97
2023-03-08T18:21:41.806Z,95481.09
2023-03-08T18:24:11.380Z,95498.88
2023-03-08T18:26:39.510Z,95506.09
2023-03-08T18:29:07.737Z,95498.88
2023-03-08T18:31:37.547Z,95472.88
2023-03-08T18:34:05.728Z,95481.78
2023-03-08T18:36:33.955Z,95487.97
2023-03-08T18:39:02.183Z,95491.69
2023-03-08T18:41:30.550Z,95494.22
2023-03-08T18:43:59.515Z,95496.91
2023-03-08T18:46:29.567Z,95504.09
2023-03-08T18:49:00.773Z,95496.03
2023-03-08T18:51:28.903Z,95485.28
2023-03-08T18:53:57.195Z,95487.97
2023-03-08T18:56:26.207Z,95479.91
2023-03-08T18:58:54.286Z,95482.75
2023-03-08T19:01:22.849Z,95481.78
2023-03-08T19:03:51.297Z,95501.41
2023-03-08T19:06:20.951Z,95505.13
2023-03-08T19:08:49.072Z,95505.13
2023-03-08T19:11:17.913Z,95498.03
2023-03-08T19:13:46.054Z,95483.63
2023-03-08T19:16:18.415Z,95480.94
2023-03-08T19:18:46.752Z,95470.19
2023-03-08T19:21:19.069Z,95462.13
2023-03-08T19:23:48.763Z,95459.44
2023-03-08T19:26:36.072Z,95456.75
2023-03-08T19:29:05.381Z,95446.00
2023-03-08T19:31:33.610Z,95457.59
2023-03-08T19:34:02.330Z,95449.53
2023-03-08T19:36:30.428Z,95453.03
2023-03-08T19:38:59.957Z,95449.53
2023-03-08T19:41:28.068Z,95434.41
2023-03-08T19:43:56.146Z,95442.28
2023-03-08T19:46:24.439Z,95443.16
2023-03-08T19:48:52.605Z,95443.16
2023-03-08T19:51:20.938Z,95446.84
2023-03-08T19:53:49.059Z,95444.16
2023-03-08T19:56:19.555Z,95442.28
2023-03-08T19:58:47.985Z,95448.53
2023-03-08T20:01:18.743Z,95446.69
2023-03-08T20:03:47.293Z,95459.28
2023-03-08T20:06:22.893Z,95475.41
2023-03-08T20:08:51.408Z,95470.88
2023-03-08T20:11:21.081Z,95483.47
2023-03-08T20:13:49.237Z,95470.03
2023-03-08T20:16:18.071Z,95504.09
2023-03-08T20:18:49.153Z,95509.47
2023-03-08T20:21:17.319Z,95493.34
2023-03-08T20:23:45.422Z,95504.09
2023-03-08T20:26:13.589Z,95510.34
2023-03-08T20:28:43.023Z,95507.81
2023-03-08T20:31:11.348Z,95501.41
2023-03-08T20:33:39.538Z,95494.22
2023-03-08T20:36:08.336Z,95496.91
2023-03-08T20:38:36.496Z,95483.63
2023-03-08T20:41:05.553Z,95474.53
2023-03-08T20:43:33.972Z,95479.91
2023-03-08T20:46:05.939Z,95479.91
2023-03-08T20:48:34.224Z,95471.03
2023-03-08T20:51:02.593Z,95463.78
2023-03-08T20:53:31.088Z,95479.09
2023-03-08T20:56:00.108Z,95476.41
2023-03-08T20:58:28.863Z,95463.94
2023-03-08T21:00:56.936Z,95474.53
2023-03-08T21:03:27.108Z,95469.31
2023-03-08T21:05:55.172Z,95457.59
2023-03-08T21:08:24.335Z,95462.13
2023-03-08T21:10:52.434Z,95466.47
2023-03-08T21:13:20.656Z,95472.88
2023-03-08T21:15:48.811Z,95469.31
2023-03-08T21:18:16.970Z,95460.41
2023-03-08T21:20:48.006Z,95455.88
2023-03-08T21:23:21.380Z,95458.72
2023-03-08T21:25:49.628Z,95477.53
2023-03-08T21:28:17.689Z,95476.53
2023-03-08T21:30:45.791Z,95469.47
2023-03-08T21:33:13.929Z,95458.72
2023-03-08T21:35:42.370Z,95460.56
2023-03-08T21:38:11.919Z,95456.06
2023-03-08T21:40:40.622Z,95461.44
2023-03-08T21:43:08.723Z,95469.75
2023-03-08T21:45:40.286Z,95459.03
2023-03-08T21:48:08.784Z,95470.78
2023-03-08T21:50:38.823Z,95482.38
2023-03-08T21:53:07.052Z,95478.00
2023-03-08T21:55:39.582Z,95478.00
2023-03-08T21:58:07.773Z,95466.38
2023-03-08T22:00:36.689Z,95467.41
2023-03-08T22:03:04.891Z,95473.63
2023-03-08T22:05:33.080Z,95461.16
2023-03-08T22:08:01.187Z,95464.72
2023-03-08T22:10:29.554Z,95472.06
2023-03-08T22:12:59.021Z,95472.06
2023-03-08T22:15:27.205Z,95455.09
2023-03-08T22:17:55.279Z,95471.22
2023-03-08T22:20:23.544Z,95475.75
2023-03-08T22:22:51.615Z,95464.16
2023-03-08T22:25:19.929Z,95464.28
2023-03-08T22:27:48.025Z,95471.53
2023-03-08T22:30:17.895Z,95478.75
2023-03-08T22:32:46.055Z,95468.97
2023-03-08T22:35:14.195Z,95484.28
2023-03-08T22:37:42.275Z,95486.94
2023-03-08T22:40:13.048Z,95472.66
2023-03-08T22:42:41.273Z,95462.06
2023-03-08T22:45:10.462Z,95462.06
2023-03-08T22:47:40.030Z,95451.47
2023-03-08T22:50:08.543Z,95444.41
2023-03-08T22:52:36.677Z,95441.72
2023-03-08T22:55:05.271Z,95446.25
2023-03-08T22:57:33.431Z,95450.75
2023-03-08T23:00:01.542Z,95449.09
2023-03-08T23:02:31.244Z,95449.09
2023-03-08T23:05:00.716Z,95454.47
2023-03-08T23:07:28.841Z,95456.28
2023-03-08T23:09:56.961Z,95468.88
2023-03-08T23:12:25.051Z,95473.41
2023-03-08T23:14:53.148Z,95472.56
2023-03-08T23:17:21.216Z,95471.88
2023-03-08T23:19:50.766Z,95476.22
2023-03-08T23:22:20.186Z,95450.38
2023-03-08T23:24:48.335Z,95436.09
2023-03-08T23:27:16.427Z,95451.50
2023-03-08T23:29:44.564Z,95443.47
2023-03-08T23:32:12.771Z,95439.91
2023-03-08T23:34:42.089Z,95445.28
2023-03-08T23:37:10.217Z,95431.16
2023-03-08T23:39:39.713Z,95421.28
2023-03-08T23:42:07.951Z,95416.91
2023-03-08T23:44:36.039Z,95398.09
2023-03-08T23:47:04.418Z,95414.34
2023-03-08T23:49:32.573Z,95402.78
2023-03-08T23:52:00.737Z,95407.31
2023-03-08T23:54:28.817Z,95405.47
2023-03-08T23:56:58.310Z,95390.34
2023-03-08T23:59:26.385Z,95400.22
